Funds performance

fund namesort icon 1 mth 3 mth 12 mth ytd Inception Net assets Return Date
iShares US Regional Banks 4.72% 6.05% 31.12% 6.05% -1.93% 2014-03-31
JH Financial Opportunities Common 4.15% 4.58% 31.04% 4.58% 11.26% 2014-03-31
JHancock Financial Industries I -6.65% -2.17% -7.06% 12.58% -0.30% 2012-05-31
JHVIT Financial Services Trust Ser I 3.43% 14.73% -0.14% 14.73% 2.39% 2012-03-31
Kinetics Market Opportunities Inst -1.84% -0.96% 26.23% -0.96% 6.14% 2014-03-31
KSM Financial Services 0.00% 0.00% 0.00% 0.00% 0.00%
KSM TA Finance 15 0.00% 0.00% 0.00% 0.00% 0.00%
Legg Mason Inv Counsel Fincl Svcs I 2.07% -0.58% 23.75% -0.58% 8.61% 2014-03-31
Market Vectors Bank and Brokerage ETF 2.05% 0.67% 21.19% 0.67% 25.87% 2014-03-31
PowerShares DWA Financial Momentum Port 1.46% -1.35% 24.06% -1.35% 3.14% 2014-03-31
PowerShares Dynamic Banking 3.71% 3.07% 13.58% 3.71% -6.78% 2013-01-31
PowerShares Dynamic Insurance 7.74% 9.83% 23.61% 7.74% 4.48% 2013-01-31
PowerShares KBW Bank 4.86% 4.80% 30.52% 4.80% 32.58% 2014-03-31
PowerShares KBW Capital Markets 2.01% -2.01% 26.17% -2.01% 28.11% 2014-03-31
PowerShares KBW Hi Div Yield Financial -0.26% 2.50% 6.03% 2.50% 11.87% 2014-03-31
PowerShares KBW Insurance 1.60% -1.94% 28.74% -1.94% 29.70% 2014-03-31
PowerShares KBW International Financial -8.31% -6.37% 1.11% -8.31% 1.25% 2014-01-31
PowerShares KBW Prop & Casuality Insur 2.62% -3.51% 9.61% -3.51% 15.61% 2014-03-31
PowerShares KBW Regional Banking 3.35% 1.32% 31.10% 1.32% 29.38% 2014-03-31
PowerShares S&P SmallCap Financials 1.12% 0.09% 16.37% 0.09% 13.85% 2014-03-31
Prudential Financial Services Z -4.64% -2.09% 15.00% -4.64% 9.26% 2014-01-31
Regional Bank HOLDRS 0.00% 0.00% 0.00% 0.00% 0.00%
RevenueShares Financials Sector 3.39% 1.33% 27.79% 1.33% 14.08% 2014-03-31
Saratoga Financial Services I 2.38% -0.12% 17.62% -0.12% 2.10% 2014-03-31
SPDR S&P Bank ETF 3.56% 2.93% 28.21% 2.93% -2.10% 2014-03-31
SPDR S&P Capital Markets ETF 1.67% -1.62% 27.80% -1.62% 1.26% 2014-03-31
SPDR S&P Insurance ETF 2.50% -1.00% 21.86% -1.00% 3.92% 2014-03-31
SPDR S&P International Financial Sector -0.06% -0.63% 17.21% -0.63% 1.16% 2014-03-31
SPDR S&P Mortgage Finance ETF -0.77% -1.00% 13.02% -1.00% 8.55% 2014-03-31
SPDR S&P Regional Banking ETF 4.22% 2.28% 32.09% 2.28% 0.59% 2014-03-31

Upcoming events

Upcoming training

Mon, 12/05/2014 (All day) - Dubai
Tue, 13/05/2014 (All day) - Dubai